sensor_id;sensor_type;location;lat;lon;timestamp;temperature;humidity
7606;DHT22;3844;53.360;9.738;2023-05-20T00:00:31;11.00;68.20
7606;DHT22;3844;53.360;9.738;2023-05-20T00:02:32;11.00;68.20
7606;DHT22;3844;53.360;9.738;2023-05-20T00:04:32;10.90;68.40
7606;DHT22;3844;53.360;9.738;2023-05-20T00:06:33;10.90;68.30
7606;DHT22;3844;53.360;9.738;2023-05-20T00:08:34;10.90;68.40
7606;DHT22;3844;53.360;9.738;2023-05-20T00:10:35;10.90;68.30
7606;DHT22;3844;53.360;9.738;2023-05-20T00:12:37;10.90;68.50
7606;DHT22;3844;53.360;9.738;2023-05-20T00:14:38;10.90;68.60
7606;DHT22;3844;53.360;9.738;2023-05-20T00:16:39;10.90;68.90
7606;DHT22;3844;53.360;9.738;2023-05-20T00:18:40;10.90;68.70
7606;DHT22;3844;53.360;9.738;2023-05-20T00:20:41;10.90;68.70
7606;DHT22;3844;53.360;9.738;2023-05-20T00:22:41;10.90;68.90
7606;DHT22;3844;53.360;9.738;2023-05-20T00:24:42;10.90;68.70
7606;DHT22;3844;53.360;9.738;2023-05-20T00:26:43;10.90;69.00
7606;DHT22;3844;53.360;9.738;2023-05-20T00:28:44;10.90;68.90
7606;DHT22;3844;53.360;9.738;2023-05-20T00:30:45;10.90;68.80
7606;DHT22;3844;53.360;9.738;2023-05-20T00:32:46;10.90;69.00
7606;DHT22;3844;53.360;9.738;2023-05-20T00:34:59;10.90;69.00
7606;DHT22;3844;53.360;9.738;2023-05-20T00:37:00;10.90;69.00
7606;DHT22;3844;53.360;9.738;2023-05-20T00:39:01;10.90;69.40
7606;DHT22;3844;53.360;9.738;2023-05-20T00:41:02;10.80;69.40
7606;DHT22;3844;53.360;9.738;2023-05-20T00:43:03;10.80;69.50
7606;DHT22;3844;53.360;9.738;2023-05-20T00:45:04;10.80;69.80
7606;DHT22;3844;53.360;9.738;2023-05-20T00:47:04;10.70;69.80
7606;DHT22;3844;53.360;9.738;2023-05-20T00:49:05;10.70;70.10
7606;DHT22;3844;53.360;9.738;2023-05-20T00:51:06;10.60;70.30
7606;DHT22;3844;53.360;9.738;2023-05-20T00:53:08;10.60;70.60
7606;DHT22;3844;53.360;9.738;2023-05-20T00:55:09;10.60;70.60
7606;DHT22;3844;53.360;9.738;2023-05-20T00:57:11;10.60;70.40
7606;DHT22;3844;53.360;9.738;2023-05-20T00:59:12;10.60;70.70
7606;DHT22;3844;53.360;9.738;2023-05-20T01:01:14;10.60;70.40
7606;DHT22;3844;53.360;9.738;2023-05-20T01:03:15;10.60;70.70
7606;DHT22;3844;53.360;9.738;2023-05-20T01:05:16;10.60;70.60
7606;DHT22;3844;53.360;9.738;2023-05-20T01:07:18;10.60;70.60
7606;DHT22;3844;53.360;9.738;2023-05-20T01:09:19;10.60;70.70
7606;DHT22;3844;53.360;9.738;2023-05-20T01:11:30;10.50;70.90
7606;DHT22;3844;53.360;9.738;2023-05-20T01:13:35;10.50;71.30
7606;DHT22;3844;53.360;9.738;2023-05-20T01:15:39;10.50;71.50
7606;DHT22;3844;53.360;9.738;2023-05-20T01:17:46;10.50;71.40
7606;DHT22;3844;53.360;9.738;2023-05-20T01:19:49;10.50;71.60
7606;DHT22;3844;53.360;9.738;2023-05-20T01:21:52;10.40;72.10
7606;DHT22;3844;53.360;9.738;2023-05-20T01:23:53;10.40;71.80
7606;DHT22;3844;53.360;9.738;2023-05-20T01:25:54;10.40;72.20
7606;DHT22;3844;53.360;9.738;2023-05-20T01:27:56;10.40;72.50
7606;DHT22;3844;53.360;9.738;2023-05-20T01:29:57;10.40;72.60
7606;DHT22;3844;53.360;9.738;2023-05-20T01:31:59;10.30;72.40
7606;DHT22;3844;53.360;9.738;2023-05-20T01:34:01;10.30;72.70
7606;DHT22;3844;53.360;9.738;2023-05-20T01:36:02;10.30;72.80
7606;DHT22;3844;53.360;9.738;2023-05-20T01:38:05;10.20;72.70
7606;DHT22;3844;53.360;9.738;2023-05-20T01:40:07;10.20;73.10
7606;DHT22;3844;53.360;9.738;2023-05-20T01:42:09;10.20;73.00
7606;DHT22;3844;53.360;9.738;2023-05-20T01:44:10;10.20;73.20
7606;DHT22;3844;53.360;9.738;2023-05-20T01:46:11;10.20;73.40
7606;DHT22;3844;53.360;9.738;2023-05-20T01:48:12;10.10;73.50
7606;DHT22;3844;53.360;9.738;2023-05-20T01:50:13;10.10;73.70
7606;DHT22;3844;53.360;9.738;2023-05-20T01:52:14;10.00;73.80
7606;DHT22;3844;53.360;9.738;2023-05-20T01:54:15;10.00;74.20
7606;DHT22;3844;53.360;9.738;2023-05-20T01:56:15;10.00;74.30
7606;DHT22;3844;53.360;9.738;2023-05-20T01:58:16;9.90;74.30
7606;DHT22;3844;53.360;9.738;2023-05-20T02:00:17;9.90;74.50
7606;DHT22;3844;53.360;9.738;2023-05-20T02:02:18;9.80;74.80
7606;DHT22;3844;53.360;9.738;2023-05-20T02:04:19;9.80;74.90
7606;DHT22;3844;53.360;9.738;2023-05-20T02:06:21;9.80;74.90
7606;DHT22;3844;53.360;9.738;2023-05-20T02:08:22;9.70;75.40
7606;DHT22;3844;53.360;9.738;2023-05-20T02:10:23;9.70;75.40
7606;DHT22;3844;53.360;9.738;2023-05-20T02:12:24;9.70;75.50
7606;DHT22;3844;53.360;9.738;2023-05-20T02:14:25;9.70;75.70
7606;DHT22;3844;53.360;9.738;2023-05-20T02:16:25;9.60;75.80
7606;DHT22;3844;53.360;9.738;2023-05-20T02:18:26;9.60;76.00
7606;DHT22;3844;53.360;9.738;2023-05-20T02:20:27;9.60;76.00
7606;DHT22;3844;53.360;9.738;2023-05-20T02:22:28;9.50;76.50
7606;DHT22;3844;53.360;9.738;2023-05-20T02:24:28;9.50;76.70
7606;DHT22;3844;53.360;9.738;2023-05-20T02:26:29;9.40;77.10
7606;DHT22;3844;53.360;9.738;2023-05-20T02:28:30;9.40;77.30
7606;DHT22;3844;53.360;9.738;2023-05-20T02:30:31;9.40;77.30
7606;DHT22;3844;53.360;9.738;2023-05-20T02:32:32;9.40;77.30
7606;DHT22;3844;53.360;9.738;2023-05-20T02:34:33;9.40;77.70
7606;DHT22;3844;53.360;9.738;2023-05-20T02:36:33;9.30;77.90
7606;DHT22;3844;53.360;9.738;2023-05-20T02:38:34;9.30;78.10
7606;DHT22;3844;53.360;9.738;2023-05-20T02:40:35;9.20;78.10
7606;DHT22;3844;53.360;9.738;2023-05-20T02:42:36;9.20;78.20
7606;DHT22;3844;53.360;9.738;2023-05-20T02:44:36;9.20;78.30
7606;DHT22;3844;53.360;9.738;2023-05-20T02:46:37;9.20;78.60
7606;DHT22;3844;53.360;9.738;2023-05-20T02:48:38;9.10;78.50
7606;DHT22;3844;53.360;9.738;2023-05-20T02:50:39;9.10;78.70
7606;DHT22;3844;53.360;9.738;2023-05-20T02:52:39;9.10;78.80
7606;DHT22;3844;53.360;9.738;2023-05-20T02:54:41;9.00;78.90
7606;DHT22;3844;53.360;9.738;2023-05-20T02:56:42;9.00;79.50
7606;DHT22;3844;53.360;9.738;2023-05-20T02:58:43;8.90;79.60
7606;DHT22;3844;53.360;9.738;2023-05-20T03:00:44;8.80;79.60
7606;DHT22;3844;53.360;9.738;2023-05-20T03:02:44;8.80;79.70
7606;DHT22;3844;53.360;9.738;2023-05-20T03:04:45;8.80;80.30
7606;DHT22;3844;53.360;9.738;2023-05-20T03:06:46;8.80;80.40
7606;DHT22;3844;53.360;9.738;2023-05-20T03:08:47;8.70;80.90
7606;DHT22;3844;53.360;9.738;2023-05-20T03:10:48;8.60;81.20
7606;DHT22;3844;53.360;9.738;2023-05-20T03:12:49;8.60;81.40
7606;DHT22;3844;53.360;9.738;2023-05-20T03:14:50;8.50;81.50
7606;DHT22;3844;53.360;9.738;2023-05-20T03:16:54;8.50;81.30
7606;DHT22;3844;53.360;9.738;2023-05-20T03:18:55;8.50;81.60
7606;DHT22;3844;53.360;9.738;2023-05-20T03:20:56;8.40;81.80
7606;DHT22;3844;53.360;9.738;2023-05-20T03:22:57;8.40;81.80
7606;DHT22;3844;53.360;9.738;2023-05-20T03:24:58;8.40;82.00
7606;DHT22;3844;53.360;9.738;2023-05-20T03:27:01;8.40;82.00
7606;DHT22;3844;53.360;9.738;2023-05-20T03:29:04;8.40;82.10
7606;DHT22;3844;53.360;9.738;2023-05-20T03:31:04;8.40;82.00
7606;DHT22;3844;53.360;9.738;2023-05-20T03:33:05;8.40;82.10
7606;DHT22;3844;53.360;9.738;2023-05-20T03:35:07;8.40;82.10
7606;DHT22;3844;53.360;9.738;2023-05-20T03:37:09;8.40;82.20
7606;DHT22;3844;53.360;9.738;2023-05-20T03:39:09;8.40;82.30
7606;DHT22;3844;53.360;9.738;2023-05-20T03:41:10;8.40;82.40
7606;DHT22;3844;53.360;9.738;2023-05-20T03:43:11;8.40;82.30
7606;DHT22;3844;53.360;9.738;2023-05-20T03:45:12;8.40;82.40
7606;DHT22;3844;53.360;9.738;2023-05-20T03:47:13;8.50;83.10
7606;DHT22;3844;53.360;9.738;2023-05-20T03:49:13;8.50;83.20
7606;DHT22;3844;53.360;9.738;2023-05-20T03:51:14;8.50;83.30
7606;DHT22;3844;53.360;9.738;2023-05-20T03:53:15;8.50;83.50
7606;DHT22;3844;53.360;9.738;2023-05-20T03:55:16;8.60;83.60
7606;DHT22;3844;53.360;9.738;2023-05-20T03:57:20;8.60;83.70
7606;DHT22;3844;53.360;9.738;2023-05-20T03:59:20;8.60;83.80
7606;DHT22;3844;53.360;9.738;2023-05-20T04:01:21;8.60;83.60
7606;DHT22;3844;53.360;9.738;2023-05-20T04:03:25;8.70;83.50
7606;DHT22;3844;53.360;9.738;2023-05-20T04:05:28;8.70;83.60
7606;DHT22;3844;53.360;9.738;2023-05-20T04:07:28;8.80;83.40
7606;DHT22;3844;53.360;9.738;2023-05-20T04:09:29;8.80;83.60
7606;DHT22;3844;53.360;9.738;2023-05-20T04:11:30;9.00;83.50
7606;DHT22;3844;53.360;9.738;2023-05-20T04:13:31;9.00;83.30
7606;DHT22;3844;53.360;9.738;2023-05-20T04:15:34;9.10;83.10
7606;DHT22;3844;53.360;9.738;2023-05-20T04:17:36;9.10;83.10
7606;DHT22;3844;53.360;9.738;2023-05-20T04:19:37;9.20;82.90
7606;DHT22;3844;53.360;9.738;2023-05-20T04:21:38;9.30;82.90
7606;DHT22;3844;53.360;9.738;2023-05-20T04:23:39;9.30;82.70
7606;DHT22;3844;53.360;9.738;2023-05-20T04:25:40;9.40;82.60
7606;DHT22;3844;53.360;9.738;2023-05-20T04:27:41;9.50;82.30
7606;DHT22;3844;53.360;9.738;2023-05-20T04:29:43;9.60;82.10
7606;DHT22;3844;53.360;9.738;2023-05-20T04:31:46;9.70;81.70
7606;DHT22;3844;53.360;9.738;2023-05-20T04:33:47;9.80;81.60
7606;DHT22;3844;53.360;9.738;2023-05-20T04:35:48;9.90;81.40
7606;DHT22;3844;53.360;9.738;2023-05-20T04:37:48;10.00;81.20
7606;DHT22;3844;53.360;9.738;2023-05-20T04:39:52;10.10;81.10
7606;DHT22;3844;53.360;9.738;2023-05-20T04:41:53;10.10;80.80
7606;DHT22;3844;53.360;9.738;2023-05-20T04:43:54;10.20;80.70
7606;DHT22;3844;53.360;9.738;2023-05-20T04:45:59;10.30;80.80
7606;DHT22;3844;53.360;9.738;2023-05-20T04:48:00;10.30;80.80
7606;DHT22;3844;53.360;9.738;2023-05-20T04:50:01;10.40;80.70
7606;DHT22;3844;53.360;9.738;2023-05-20T04:52:02;10.50;80.50
7606;DHT22;3844;53.360;9.738;2023-05-20T04:54:04;10.60;80.30
7606;DHT22;3844;53.360;9.738;2023-05-20T04:56:05;10.70;80.40
7606;DHT22;3844;53.360;9.738;2023-05-20T04:58:08;10.70;80.50
7606;DHT22;3844;53.360;9.738;2023-05-20T05:00:14;10.80;80.30
7606;DHT22;3844;53.360;9.738;2023-05-20T05:02:15;11.00;80.00
7606;DHT22;3844;53.360;9.738;2023-05-20T05:04:16;11.10;79.70
7606;DHT22;3844;53.360;9.738;2023-05-20T05:06:16;11.30;79.50
7606;DHT22;3844;53.360;9.738;2023-05-20T05:08:17;11.50;79.20
7606;DHT22;3844;53.360;9.738;2023-05-20T05:10:19;11.80;78.60
7606;DHT22;3844;53.360;9.738;2023-05-20T05:12:31;12.00;78.40
7606;DHT22;3844;53.360;9.738;2023-05-20T05:14:32;12.20;77.60
7606;DHT22;3844;53.360;9.738;2023-05-20T05:16:33;12.40;77.20
7606;DHT22;3844;53.360;9.738;2023-05-20T05:18:34;12.60;76.70
7606;DHT22;3844;53.360;9.738;2023-05-20T05:20:35;12.80;76.30
7606;DHT22;3844;53.360;9.738;2023-05-20T05:22:36;13.10;74.90
7606;DHT22;3844;53.360;9.738;2023-05-20T05:24:39;13.20;73.40
7606;DHT22;3844;53.360;9.738;2023-05-20T05:26:40;13.50;74.10
7606;DHT22;3844;53.360;9.738;2023-05-20T05:28:41;13.70;73.00
7606;DHT22;3844;53.360;9.738;2023-05-20T05:30:45;13.90;72.50
7606;DHT22;3844;53.360;9.738;2023-05-20T05:32:45;14.10;72.20
7606;DHT22;3844;53.360;9.738;2023-05-20T05:34:46;14.40;71.60
7606;DHT22;3844;53.360;9.738;2023-05-20T05:36:50;14.60;70.70
7606;DHT22;3844;53.360;9.738;2023-05-20T05:38:51;14.80;70.40
7606;DHT22;3844;53.360;9.738;2023-05-20T05:40:52;15.10;69.90
7606;DHT22;3844;53.360;9.738;2023-05-20T05:42:53;15.40;69.20
7606;DHT22;3844;53.360;9.738;2023-05-20T05:44:53;15.70;68.10
7606;DHT22;3844;53.360;9.738;2023-05-20T05:46:54;15.80;67.90
7606;DHT22;3844;53.360;9.738;2023-05-20T05:48:55;16.00;67.50
7606;DHT22;3844;53.360;9.738;2023-05-20T05:50:58;16.20;66.20
7606;DHT22;3844;53.360;9.738;2023-05-20T05:52:59;16.40;66.30
7606;DHT22;3844;53.360;9.738;2023-05-20T05:54:59;16.50;65.80
7606;DHT22;3844;53.360;9.738;2023-05-20T05:57:00;16.70;65.20
7606;DHT22;3844;53.360;9.738;2023-05-20T05:59:01;16.70;64.50
7606;DHT22;3844;53.360;9.738;2023-05-20T06:01:02;16.70;66.10
7606;DHT22;3844;53.360;9.738;2023-05-20T06:03:03;16.90;65.70
7606;DHT22;3844;53.360;9.738;2023-05-20T06:05:04;17.00;64.40
7606;DHT22;3844;53.360;9.738;2023-05-20T06:07:05;17.30;64.70
7606;DHT22;3844;53.360;9.738;2023-05-20T06:09:06;17.50;63.70
7606;DHT22;3844;53.360;9.738;2023-05-20T06:11:07;17.80;63.00
7606;DHT22;3844;53.360;9.738;2023-05-20T06:13:08;17.90;61.90
7606;DHT22;3844;53.360;9.738;2023-05-20T06:15:09;18.00;62.70
7606;DHT22;3844;53.360;9.738;2023-05-20T06:17:10;18.10;62.10
7606;DHT22;3844;53.360;9.738;2023-05-20T06:19:11;18.30;62.60
7606;DHT22;3844;53.360;9.738;2023-05-20T06:21:12;18.60;62.20
7606;DHT22;3844;53.360;9.738;2023-05-20T06:23:12;18.60;60.80
7606;DHT22;3844;53.360;9.738;2023-05-20T06:25:13;18.40;62.20
7606;DHT22;3844;53.360;9.738;2023-05-20T06:27:14;18.60;62.30
7606;DHT22;3844;53.360;9.738;2023-05-20T06:29:15;18.80;61.00
7606;DHT22;3844;53.360;9.738;2023-05-20T06:31:16;18.80;59.90
7606;DHT22;3844;53.360;9.738;2023-05-20T06:33:17;18.30;62.00
7606;DHT22;3844;53.360;9.738;2023-05-20T06:35:19;18.10;62.20
7606;DHT22;3844;53.360;9.738;2023-05-20T06:37:20;18.10;62.60
7606;DHT22;3844;53.360;9.738;2023-05-20T06:39:24;18.20;62.10
7606;DHT22;3844;53.360;9.738;2023-05-20T06:41:24;18.30;62.40
7606;DHT22;3844;53.360;9.738;2023-05-20T06:43:26;18.30;62.20
7606;DHT22;3844;53.360;9.738;2023-05-20T06:45:27;18.40;62.60
7606;DHT22;3844;53.360;9.738;2023-05-20T06:47:28;18.60;61.00
7606;DHT22;3844;53.360;9.738;2023-05-20T06:49:28;18.60;61.20
7606;DHT22;3844;53.360;9.738;2023-05-20T06:51:29;18.70;61.50
7606;DHT22;3844;53.360;9.738;2023-05-20T06:53:30;18.90;61.90
7606;DHT22;3844;53.360;9.738;2023-05-20T06:55:31;19.10;61.30
7606;DHT22;3844;53.360;9.738;2023-05-20T06:57:32;19.20;60.60
7606;DHT22;3844;53.360;9.738;2023-05-20T06:59:34;19.20;60.20
7606;DHT22;3844;53.360;9.738;2023-05-20T07:01:35;19.00;60.60
7606;DHT22;3844;53.360;9.738;2023-05-20T07:03:36;18.90;61.50
7606;DHT22;3844;53.360;9.738;2023-05-20T07:05:37;18.90;61.10
7606;DHT22;3844;53.360;9.738;2023-05-20T07:07:38;19.00;60.60
7606;DHT22;3844;53.360;9.738;2023-05-20T07:09:39;19.30;59.80
7606;DHT22;3844;53.360;9.738;2023-05-20T07:11:46;19.10;61.10
7606;DHT22;3844;53.360;9.738;2023-05-20T07:13:47;19.30;61.00
7606;DHT22;3844;53.360;9.738;2023-05-20T07:15:48;19.50;60.10
7606;DHT22;3844;53.360;9.738;2023-05-20T07:17:50;19.70;60.60
7606;DHT22;3844;53.360;9.738;2023-05-20T07:19:51;20.00;59.70
7606;DHT22;3844;53.360;9.738;2023-05-20T07:21:51;20.20;58.40
7606;DHT22;3844;53.360;9.738;2023-05-20T07:23:52;20.20;57.80
7606;DHT22;3844;53.360;9.738;2023-05-20T07:25:53;20.00;59.10
7606;DHT22;3844;53.360;9.738;2023-05-20T07:27:54;20.00;59.40
7606;DHT22;3844;53.360;9.738;2023-05-20T07:29:55;20.20;59.50
7606;DHT22;3844;53.360;9.738;2023-05-20T07:31:56;20.40;58.80
7606;DHT22;3844;53.360;9.738;2023-05-20T07:33:57;20.60;58.40
7606;DHT22;3844;53.360;9.738;2023-05-20T07:35:58;20.90;58.00
7606;DHT22;3844;53.360;9.738;2023-05-20T07:37:59;21.20;57.30
7606;DHT22;3844;53.360;9.738;2023-05-20T07:40:00;21.50;56.80
7606;DHT22;3844;53.360;9.738;2023-05-20T07:42:01;21.80;56.50
7606;DHT22;3844;53.360;9.738;2023-05-20T07:44:03;22.00;55.60
7606;DHT22;3844;53.360;9.738;2023-05-20T07:46:04;22.30;55.00
7606;DHT22;3844;53.360;9.738;2023-05-20T07:48:05;22.60;54.60
7606;DHT22;3844;53.360;9.738;2023-05-20T07:50:08;22.80;52.90
7606;DHT22;3844;53.360;9.738;2023-05-20T07:52:09;22.90;54.10
7606;DHT22;3844;53.360;9.738;2023-05-20T07:54:10;23.20;53.00
7606;DHT22;3844;53.360;9.738;2023-05-20T07:56:11;23.10;52.40
7606;DHT22;3844;53.360;9.738;2023-05-20T07:58:12;22.80;53.10
7606;DHT22;3844;53.360;9.738;2023-05-20T08:00:13;23.00;53.80
7606;DHT22;3844;53.360;9.738;2023-05-20T08:02:14;23.50;52.70
7606;DHT22;3844;53.360;9.738;2023-05-20T08:04:15;23.60;53.50
7606;DHT22;3844;53.360;9.738;2023-05-20T08:06:16;23.90;53.00
7606;DHT22;3844;53.360;9.738;2023-05-20T08:08:17;24.10;52.50
7606;DHT22;3844;53.360;9.738;2023-05-20T08:10:18;24.40;51.90
7606;DHT22;3844;53.360;9.738;2023-05-20T08:12:19;24.40;50.90
7606;DHT22;3844;53.360;9.738;2023-05-20T08:14:20;24.30;50.90
7606;DHT22;3844;53.360;9.738;2023-05-20T08:16:21;24.50;50.80
7606;DHT22;3844;53.360;9.738;2023-05-20T08:18:22;24.20;49.80
7606;DHT22;3844;53.360;9.738;2023-05-20T08:20:23;23.80;51.50
7606;DHT22;3844;53.360;9.738;2023-05-20T08:22:26;23.50;52.00
7606;DHT22;3844;53.360;9.738;2023-05-20T08:24:26;23.50;52.20
7606;DHT22;3844;53.360;9.738;2023-05-20T08:26:27;23.50;51.50
7606;DHT22;3844;53.360;9.738;2023-05-20T08:28:28;23.40;51.90
7606;DHT22;3844;53.360;9.738;2023-05-20T08:30:29;23.40;52.10
7606;DHT22;3844;53.360;9.738;2023-05-20T08:32:30;23.30;52.80
7606;DHT22;3844;53.360;9.738;2023-05-20T08:34:31;23.30;52.50
7606;DHT22;3844;53.360;9.738;2023-05-20T08:36:32;23.20;52.20
7606;DHT22;3844;53.360;9.738;2023-05-20T08:38:34;23.30;53.00
7606;DHT22;3844;53.360;9.738;2023-05-20T08:40:36;23.40;51.80
7606;DHT22;3844;53.360;9.738;2023-05-20T08:42:41;23.40;52.40
7606;DHT22;3844;53.360;9.738;2023-05-20T08:44:43;23.60;52.60
7606;DHT22;3844;53.360;9.738;2023-05-20T08:46:44;23.80;52.60
7606;DHT22;3844;53.360;9.738;2023-05-20T08:48:46;23.90;52.20
7606;DHT22;3844;53.360;9.738;2023-05-20T08:50:50;23.80;51.60
7606;DHT22;3844;53.360;9.738;2023-05-20T08:52:52;23.70;52.20
7606;DHT22;3844;53.360;9.738;2023-05-20T08:54:53;23.80;52.40
7606;DHT22;3844;53.360;9.738;2023-05-20T08:56:54;23.60;52.10
7606;DHT22;3844;53.360;9.738;2023-05-20T08:58:56;23.30;51.70
7606;DHT22;3844;53.360;9.738;2023-05-20T09:00:57;23.10;52.40
7606;DHT22;3844;53.360;9.738;2023-05-20T09:02:59;22.70;52.40
7606;DHT22;3844;53.360;9.738;2023-05-20T09:05:00;22.40;53.90
7606;DHT22;3844;53.360;9.738;2023-05-20T09:07:01;22.70;53.80
7606;DHT22;3844;53.360;9.738;2023-05-20T09:09:01;22.50;53.50
7606;DHT22;3844;53.360;9.738;2023-05-20T09:11:02;22.40;52.80
7606;DHT22;3844;53.360;9.738;2023-05-20T09:13:05;22.30;52.10
7606;DHT22;3844;53.360;9.738;2023-05-20T09:15:07;21.70;53.60
7606;DHT22;3844;53.360;9.738;2023-05-20T09:17:09;21.40;54.40
7606;DHT22;3844;53.360;9.738;2023-05-20T09:19:10;20.90;55.90
7606;DHT22;3844;53.360;9.738;2023-05-20T09:21:11;20.80;56.00
7606;DHT22;3844;53.360;9.738;2023-05-20T09:23:12;21.20;55.00
7606;DHT22;3844;53.360;9.738;2023-05-20T09:25:13;21.90;54.80
7606;DHT22;3844;53.360;9.738;2023-05-20T09:27:18;22.60;51.50
7606;DHT22;3844;53.360;9.738;2023-05-20T09:29:20;23.40;51.00
7606;DHT22;3844;53.360;9.738;2023-05-20T09:31:24;23.40;49.80
7606;DHT22;3844;53.360;9.738;2023-05-20T09:33:31;23.50;50.30
7606;DHT22;3844;53.360;9.738;2023-05-20T09:35:35;23.30;50.70
7606;DHT22;3844;53.360;9.738;2023-05-20T09:37:41;23.00;50.60
7606;DHT22;3844;53.360;9.738;2023-05-20T09:42:37;21.90;53.30
7606;DHT22;3844;53.360;9.738;2023-05-20T09:44:41;21.60;54.70
7606;DHT22;3844;53.360;9.738;2023-05-20T09:46:45;21.80;53.90
7606;DHT22;3844;53.360;9.738;2023-05-20T09:48:47;21.60;53.70
7606;DHT22;3844;53.360;9.738;2023-05-20T09:50:49;21.40;54.50
7606;DHT22;3844;53.360;9.738;2023-05-20T09:52:52;21.20;54.90
7606;DHT22;3844;53.360;9.738;2023-05-20T09:54:53;20.80;55.00
7606;DHT22;3844;53.360;9.738;2023-05-20T09:56:57;20.60;55.90
7606;DHT22;3844;53.360;9.738;2023-05-20T09:59:00;20.60;56.10
7606;DHT22;3844;53.360;9.738;2023-05-20T10:01:02;20.60;56.10
7606;DHT22;3844;53.360;9.738;2023-05-20T10:03:03;20.40;56.10
7606;DHT22;3844;53.360;9.738;2023-05-20T10:05:08;20.10;55.50
7606;DHT22;3844;53.360;9.738;2023-05-20T10:07:25;19.70;56.50
7606;DHT22;3844;53.360;9.738;2023-05-20T10:09:42;19.60;57.90
7606;DHT22;3844;53.360;9.738;2023-05-20T10:12:13;19.70;58.20
7606;DHT22;3844;53.360;9.738;2023-05-20T10:14:42;19.90;56.50
7606;DHT22;3844;53.360;9.738;2023-05-20T10:16:59;19.90;57.30
7606;DHT22;3844;53.360;9.738;2023-05-20T10:21:15;20.20;55.70
7606;DHT22;3844;53.360;9.738;2023-05-20T10:23:23;20.10;55.80
7606;DHT22;3844;53.360;9.738;2023-05-20T10:25:26;20.10;55.90
7606;DHT22;3844;53.360;9.738;2023-05-20T10:27:27;19.90;56.80
7606;DHT22;3844;53.360;9.738;2023-05-20T10:29:28;20.00;56.80
7606;DHT22;3844;53.360;9.738;2023-05-20T10:31:29;20.00;56.60
7606;DHT22;3844;53.360;9.738;2023-05-20T10:33:43;20.00;57.50
7606;DHT22;3844;53.360;9.738;2023-05-20T10:35:49;20.00;57.30
7606;DHT22;3844;53.360;9.738;2023-05-20T10:37:53;20.00;57.30
7606;DHT22;3844;53.360;9.738;2023-05-20T10:42:09;20.10;56.50
7606;DHT22;3844;53.360;9.738;2023-05-20T10:44:09;20.20;56.80
7606;DHT22;3844;53.360;9.738;2023-05-20T10:46:17;20.40;56.00
7606;DHT22;3844;53.360;9.738;2023-05-20T10:48:26;20.70;56.70
7606;DHT22;3844;53.360;9.738;2023-05-20T10:50:36;21.00;55.70
7606;DHT22;3844;53.360;9.738;2023-05-20T10:52:38;20.90;55.60
7606;DHT22;3844;53.360;9.738;2023-05-20T10:54:56;20.80;55.80
7606;DHT22;3844;53.360;9.738;2023-05-20T10:56:57;20.80;55.60
7606;DHT22;3844;53.360;9.738;2023-05-20T10:59:00;20.60;56.70
7606;DHT22;3844;53.360;9.738;2023-05-20T11:01:02;20.70;57.30
7606;DHT22;3844;53.360;9.738;2023-05-20T11:03:04;21.10;56.40
7606;DHT22;3844;53.360;9.738;2023-05-20T11:05:05;21.20;55.30
7606;DHT22;3844;53.360;9.738;2023-05-20T11:07:10;21.10;55.20
7606;DHT22;3844;53.360;9.738;2023-05-20T11:09:11;20.60;56.40
7606;DHT22;3844;53.360;9.738;2023-05-20T11:11:13;20.60;56.70
7606;DHT22;3844;53.360;9.738;2023-05-20T11:13:14;20.80;56.40
7606;DHT22;3844;53.360;9.738;2023-05-20T11:15:15;20.70;55.70
7606;DHT22;3844;53.360;9.738;2023-05-20T11:17:18;20.60;56.50
7606;DHT22;3844;53.360;9.738;2023-05-20T11:19:19;20.50;56.30
7606;DHT22;3844;53.360;9.738;2023-05-20T11:21:20;20.50;56.60
7606;DHT22;3844;53.360;9.738;2023-05-20T11:23:21;20.40;56.60
7606;DHT22;3844;53.360;9.738;2023-05-20T11:25:26;20.30;57.00
7606;DHT22;3844;53.360;9.738;2023-05-20T11:27:27;20.30;56.40
7606;DHT22;3844;53.360;9.738;2023-05-20T11:29:28;20.20;57.00
7606;DHT22;3844;53.360;9.738;2023-05-20T11:31:31;20.00;56.70
7606;DHT22;3844;53.360;9.738;2023-05-20T11:33:32;19.90;57.80
7606;DHT22;3844;53.360;9.738;2023-05-20T11:35:33;19.90;57.60
7606;DHT22;3844;53.360;9.738;2023-05-20T11:37:35;20.00;57.80
7606;DHT22;3844;53.360;9.738;2023-05-20T11:39:36;20.20;58.30
7606;DHT22;3844;53.360;9.738;2023-05-20T11:41:37;20.50;57.60
7606;DHT22;3844;53.360;9.738;2023-05-20T11:43:38;20.60;57.30
7606;DHT22;3844;53.360;9.738;2023-05-20T11:45:44;20.60;57.00
7606;DHT22;3844;53.360;9.738;2023-05-20T11:47:45;20.30;57.60
7606;DHT22;3844;53.360;9.738;2023-05-20T11:49:48;20.20;57.40
7606;DHT22;3844;53.360;9.738;2023-05-20T11:51:49;19.80;58.80
7606;DHT22;3844;53.360;9.738;2023-05-20T11:53:50;19.60;59.50
7606;DHT22;3844;53.360;9.738;2023-05-20T11:55:58;19.60;59.90
7606;DHT22;3844;53.360;9.738;2023-05-20T11:58:00;19.60;60.00
7606;DHT22;3844;53.360;9.738;2023-05-20T12:00:03;19.60;60.40
7606;DHT22;3844;53.360;9.738;2023-05-20T12:02:06;19.70;60.10
7606;DHT22;3844;53.360;9.738;2023-05-20T12:04:08;19.70;60.60
7606;DHT22;3844;53.360;9.738;2023-05-20T12:06:10;19.70;59.30
7606;DHT22;3844;53.360;9.738;2023-05-20T12:08:12;19.60;59.60
7606;DHT22;3844;53.360;9.738;2023-05-20T12:10:13;19.50;59.50
7606;DHT22;3844;53.360;9.738;2023-05-20T12:12:14;19.30;60.20
7606;DHT22;3844;53.360;9.738;2023-05-20T12:14:15;19.20;60.90
7606;DHT22;3844;53.360;9.738;2023-05-20T12:16:16;19.10;61.20
7606;DHT22;3844;53.360;9.738;2023-05-20T12:18:17;19.10;61.50
7606;DHT22;3844;53.360;9.738;2023-05-20T12:20:20;19.30;62.00
7606;DHT22;3844;53.360;9.738;2023-05-20T12:22:21;19.60;60.50
7606;DHT22;3844;53.360;9.738;2023-05-20T12:24:21;20.00;60.50
7606;DHT22;3844;53.360;9.738;2023-05-20T12:26:27;20.50;59.90
7606;DHT22;3844;53.360;9.738;2023-05-20T12:28:27;20.70;58.80
7606;DHT22;3844;53.360;9.738;2023-05-20T12:30:28;20.60;58.50
7606;DHT22;3844;53.360;9.738;2023-05-20T12:32:29;20.40;58.10
7606;DHT22;3844;53.360;9.738;2023-05-20T12:34:30;20.20;58.80
7606;DHT22;3844;53.360;9.738;2023-05-20T12:36:32;20.20;59.50
7606;DHT22;3844;53.360;9.738;2023-05-20T12:38:33;20.10;59.50
7606;DHT22;3844;53.360;9.738;2023-05-20T12:40:34;20.10;59.80
7606;DHT22;3844;53.360;9.738;2023-05-20T12:42:39;20.10;59.50
7606;DHT22;3844;53.360;9.738;2023-05-20T12:44:40;20.10;59.00
7606;DHT22;3844;53.360;9.738;2023-05-20T12:46:41;20.10;59.70
7606;DHT22;3844;53.360;9.738;2023-05-20T12:48:42;20.30;59.70
7606;DHT22;3844;53.360;9.738;2023-05-20T12:50:42;20.40;59.10
7606;DHT22;3844;53.360;9.738;2023-05-20T12:52:43;20.50;58.70
7606;DHT22;3844;53.360;9.738;2023-05-20T12:54:44;20.50;58.80
7606;DHT22;3844;53.360;9.738;2023-05-20T12:56:45;20.50;58.80
7606;DHT22;3844;53.360;9.738;2023-05-20T12:58:47;20.40;58.70
7606;DHT22;3844;53.360;9.738;2023-05-20T13:00:48;20.40;59.40
7606;DHT22;3844;53.360;9.738;2023-05-20T13:02:49;20.50;59.20
7606;DHT22;3844;53.360;9.738;2023-05-20T13:04:51;20.50;59.30
7606;DHT22;3844;53.360;9.738;2023-05-20T13:06:52;20.50;58.60
7606;DHT22;3844;53.360;9.738;2023-05-20T13:08:53;20.30;59.40
7606;DHT22;3844;53.360;9.738;2023-05-20T13:10:54;20.20;59.50
7606;DHT22;3844;53.360;9.738;2023-05-20T13:12:55;20.00;59.60
7606;DHT22;3844;53.360;9.738;2023-05-20T13:14:57;20.00;59.90
7606;DHT22;3844;53.360;9.738;2023-05-20T13:16:57;20.00;60.40
7606;DHT22;3844;53.360;9.738;2023-05-20T13:18:58;20.00;60.10
7606;DHT22;3844;53.360;9.738;2023-05-20T13:20:59;20.00;60.10
7606;DHT22;3844;53.360;9.738;2023-05-20T13:23:00;20.00;59.70
7606;DHT22;3844;53.360;9.738;2023-05-20T13:25:00;19.90;59.70